createdAt,value
2022-11-15T00:00:04.785Z,6.14
2022-11-15T00:01:25.352Z,6.16
2022-11-15T00:02:46.247Z,6.15
2022-11-15T00:04:07.307Z,6.13
2022-11-15T00:05:28.095Z,6.12
2022-11-15T00:06:49.296Z,6.14
2022-11-15T00:08:10.745Z,6.14
2022-11-15T00:09:31.734Z,6.14
2022-11-15T00:10:57.233Z,6.14
2022-11-15T00:12:18.098Z,6.14
2022-11-15T00:13:38.771Z,6.14
2022-11-15T00:14:59.463Z,6.12
2022-11-15T00:16:20.149Z,6.13
2022-11-15T00:17:40.723Z,6.11
2022-11-15T00:19:01.405Z,6.13
2022-11-15T00:20:22.047Z,6.11
2022-11-15T00:21:42.721Z,6.12
2022-11-15T00:23:07.459Z,6.13
2022-11-15T00:24:28.146Z,6.13
2022-11-15T00:25:57.545Z,6.11
2022-11-15T00:27:18.588Z,6.12
2022-11-15T00:28:39.775Z,6.12
2022-11-15T00:30:00.536Z,6.12
2022-11-15T00:31:21.320Z,6.13
2022-11-15T00:32:49.433Z,6.11
2022-11-15T00:34:11.781Z,6.11
2022-11-15T00:35:34.579Z,6.13
2022-11-15T00:36:55.359Z,6.10
2022-11-15T00:38:16.458Z,6.10
2022-11-15T00:39:36.976Z,6.10
2022-11-15T00:40:57.623Z,6.09
2022-11-15T00:42:18.389Z,6.06
2022-11-15T00:43:41.200Z,6.07
2022-11-15T00:45:02.671Z,6.04
2022-11-15T00:46:23.678Z,6.06
2022-11-15T00:47:47.854Z,6.06
2022-11-15T00:49:08.793Z,6.07
2022-11-15T00:50:29.630Z,6.06
2022-11-15T00:51:50.569Z,6.06
2022-11-15T00:53:11.475Z,6.06
2022-11-15T00:54:32.220Z,6.07
2022-11-15T00:55:53.076Z,6.06
2022-11-15T00:57:14.251Z,6.07
2022-11-15T00:58:34.997Z,6.09
2022-11-15T00:59:55.709Z,6.07
2022-11-15T01:01:16.664Z,6.08
2022-11-15T01:02:37.658Z,6.09
2022-11-15T01:04:01.306Z,6.10
2022-11-15T01:05:23.013Z,6.09
2022-11-15T01:06:43.720Z,6.10
2022-11-15T01:08:05.136Z,6.12
2022-11-15T01:09:25.956Z,6.09
2022-11-15T01:10:46.703Z,6.10
2022-11-15T01:12:07.273Z,6.10
2022-11-15T01:13:32.128Z,6.12
2022-11-15T01:14:53.370Z,6.12
2022-11-15T01:16:19.423Z,6.15
2022-11-15T01:17:40.178Z,6.16
2022-11-15T01:19:02.342Z,6.14
2022-11-15T01:20:23.206Z,6.16
2022-11-15T01:21:44.236Z,6.20
2022-11-15T01:23:05.153Z,6.18
2022-11-15T01:24:26.008Z,6.18
2022-11-15T01:25:47.020Z,6.20
2022-11-15T01:27:07.638Z,6.19
2022-11-15T01:28:38.922Z,6.18
2022-11-15T01:29:59.801Z,6.18
2022-11-15T01:31:22.018Z,6.20
2022-11-15T01:32:42.850Z,6.22
2022-11-15T01:34:03.516Z,6.21
2022-11-15T01:35:24.861Z,6.22
2022-11-15T01:36:45.477Z,6.22
2022-11-15T01:38:06.187Z,6.21
2022-11-15T01:39:27.692Z,6.23
2022-11-15T01:40:49.260Z,6.22
2022-11-15T01:42:14.770Z,6.24
2022-11-15T01:43:37.778Z,6.24
2022-11-15T01:44:58.767Z,6.24
2022-11-15T01:46:32.932Z,6.26
2022-11-15T01:47:56.172Z,6.24
2022-11-15T01:49:20.469Z,6.27
2022-11-15T01:50:41.289Z,6.27
2022-11-15T01:52:06.049Z,6.26
2022-11-15T01:53:29.026Z,6.26
2022-11-15T01:54:55.056Z,6.26
2022-11-15T01:56:25.980Z,6.26
2022-11-15T01:57:49.383Z,6.26
2022-11-15T01:59:11.843Z,6.27
2022-11-15T02:00:35.193Z,6.27
2022-11-15T02:01:56.682Z,6.27
2022-11-15T02:03:17.759Z,6.27
2022-11-15T02:04:47.105Z,6.27
2022-11-15T02:06:08.631Z,6.28
2022-11-15T02:07:31.678Z,6.27
2022-11-15T02:08:52.914Z,6.28
2022-11-15T02:10:22.751Z,6.28
2022-11-15T02:11:45.089Z,6.28
2022-11-15T02:13:06.070Z,6.25
2022-11-15T02:14:28.644Z,6.26
2022-11-15T02:16:28.013Z,6.26
2022-11-15T02:18:09.243Z,6.24
2022-11-15T02:20:03.058Z,6.23
2022-11-15T02:21:40.631Z,6.21
2022-11-15T02:23:22.463Z,6.19
2022-11-15T02:24:46.182Z,6.18
2022-11-15T02:26:13.015Z,6.17
2022-11-15T02:28:12.755Z,6.16
2022-11-15T02:29:54.823Z,6.14
2022-11-15T02:31:27.212Z,6.14
2022-11-15T02:33:12.541Z,6.10
2022-11-15T02:34:39.037Z,6.07
2022-11-15T02:36:13.293Z,6.06
2022-11-15T02:37:56.837Z,6.04
2022-11-15T02:39:39.681Z,6.01
2022-11-15T02:41:05.885Z,6.01
2022-11-15T02:42:49.683Z,5.98
2022-11-15T02:44:25.637Z,5.96
2022-11-15T02:45:52.224Z,5.96
2022-11-15T02:47:17.810Z,5.92
2022-11-15T02:48:40.033Z,5.91
2022-11-15T02:50:10.039Z,5.90
2022-11-15T02:51:30.608Z,5.89
2022-11-15T02:52:52.123Z,5.87
2022-11-15T02:54:24.656Z,5.88
2022-11-15T02:56:05.821Z,5.85
2022-11-15T02:57:50.774Z,5.85
2022-11-15T02:59:29.196Z,5.84
2022-11-15T03:00:58.870Z,5.84
2022-11-15T03:02:44.442Z,5.84
2022-11-15T03:04:35.851Z,5.83
2022-11-15T03:06:27.436Z,5.81
2022-11-15T03:08:03.603Z,5.81
2022-11-15T03:09:46.174Z,5.78
2022-11-15T03:11:10.146Z,5.78
2022-11-15T03:12:44.295Z,5.78
2022-11-15T03:14:23.727Z,5.78
2022-11-15T03:15:55.619Z,5.76
2022-11-15T03:17:23.770Z,5.76
2022-11-15T03:18:54.871Z,5.74
2022-11-15T03:20:17.961Z,5.72
2022-11-15T03:21:41.961Z,5.72
2022-11-15T03:23:06.581Z,5.73
2022-11-15T03:24:34.068Z,5.71
2022-11-15T03:25:57.304Z,5.71
2022-11-15T03:27:23.655Z,5.72
2022-11-15T03:29:00.160Z,5.69
2022-11-15T03:30:21.533Z,5.71
2022-11-15T03:31:50.502Z,5.72
2022-11-15T03:33:12.776Z,5.72
2022-11-15T03:34:40.432Z,5.72
2022-11-15T03:36:04.395Z,5.71
2022-11-15T03:37:34.191Z,5.72
2022-11-15T03:38:59.480Z,5.71
2022-11-15T03:40:27.544Z,5.69
2022-11-15T03:42:14.793Z,5.70
2022-11-15T03:43:40.307Z,5.70
2022-11-15T03:45:03.731Z,5.72
2022-11-15T03:46:27.038Z,5.71
2022-11-15T03:47:59.152Z,5.71
2022-11-15T03:49:31.066Z,5.70
2022-11-15T03:50:52.546Z,5.71
2022-11-15T03:52:13.655Z,5.70
2022-11-15T03:53:34.353Z,5.69
2022-11-15T03:54:57.590Z,5.69
2022-11-15T03:56:21.288Z,5.68
2022-11-15T03:57:42.429Z,5.69
2022-11-15T03:59:03.272Z,5.68
2022-11-15T04:00:24.502Z,5.67
2022-11-15T04:01:44.990Z,5.66
2022-11-15T04:03:05.965Z,5.69
2022-11-15T04:04:26.648Z,5.68
2022-11-15T04:05:47.565Z,5.67
2022-11-15T04:07:08.273Z,5.67
2022-11-15T04:08:29.654Z,5.66
2022-11-15T04:10:06.106Z,5.67
2022-11-15T04:11:26.829Z,5.67
2022-11-15T04:12:48.748Z,5.68
2022-11-15T04:14:09.577Z,5.68
2022-11-15T04:15:31.062Z,5.70
2022-11-15T04:16:51.794Z,5.69
2022-11-15T04:18:14.771Z,5.70
2022-11-15T04:19:55.684Z,5.70
2022-11-15T04:21:34.647Z,5.71
2022-11-15T04:23:15.540Z,5.72
2022-11-15T04:24:36.360Z,5.71
2022-11-15T04:26:00.579Z,5.72
2022-11-15T04:27:21.434Z,5.71
2022-11-15T04:29:00.853Z,5.72
2022-11-15T04:30:21.738Z,5.71
2022-11-15T04:31:42.266Z,5.71
2022-11-15T04:33:02.858Z,5.72
2022-11-15T04:34:23.512Z,5.71
2022-11-15T04:35:44.812Z,5.72
2022-11-15T04:37:14.298Z,5.71
2022-11-15T04:38:35.579Z,5.72
2022-11-15T04:39:56.672Z,5.71
2022-11-15T04:41:17.212Z,5.69
2022-11-15T04:42:37.928Z,5.71
2022-11-15T04:43:58.863Z,5.69
2022-11-15T04:45:19.915Z,5.68
2022-11-15T04:46:40.886Z,5.70
2022-11-15T04:48:01.686Z,5.70
2022-11-15T04:49:22.725Z,5.69
2022-11-15T04:50:43.480Z,5.72
2022-11-15T04:52:04.537Z,5.71
2022-11-15T04:53:25.621Z,5.70
2022-11-15T04:54:46.333Z,5.72
2022-11-15T04:56:07.483Z,5.72
2022-11-15T04:57:28.074Z,5.72
2022-11-15T04:58:51.889Z,5.73
2022-11-15T05:00:16.676Z,5.72
2022-11-15T05:01:42.138Z,5.72
2022-11-15T05:03:24.034Z,5.71
2022-11-15T05:04:45.051Z,5.73
2022-11-15T05:06:07.055Z,5.72
2022-11-15T05:07:27.894Z,5.69
2022-11-15T05:08:49.237Z,5.69
2022-11-15T05:10:10.400Z,5.69
2022-11-15T05:11:30.962Z,5.71
2022-11-15T05:12:51.985Z,5.71
2022-11-15T05:14:13.853Z,5.73
2022-11-15T05:15:34.998Z,5.72
2022-11-15T05:16:55.940Z,5.73
2022-11-15T05:18:22.182Z,5.72
2022-11-15T05:19:45.687Z,5.72
2022-11-15T05:21:11.054Z,5.73
2022-11-15T05:22:31.670Z,5.70
2022-11-15T05:23:53.007Z,5.73
2022-11-15T05:25:13.707Z,5.71
2022-11-15T05:26:34.331Z,5.73
2022-11-15T05:27:55.572Z,5.73
2022-11-15T05:29:16.100Z,5.72
2022-11-15T05:30:37.005Z,5.72
2022-11-15T05:31:57.888Z,5.73
2022-11-15T05:33:19.802Z,5.72
2022-11-15T05:34:40.512Z,5.73
2022-11-15T05:36:07.814Z,5.73
2022-11-15T05:37:29.892Z,5.71
2022-11-15T05:38:54.278Z,5.73
2022-11-15T05:40:14.838Z,5.73
2022-11-15T05:41:40.510Z,5.73
2022-11-15T05:43:03.169Z,5.73
2022-11-15T05:44:24.666Z,5.72
2022-11-15T05:45:48.212Z,5.73
2022-11-15T05:47:12.464Z,5.73
2022-11-15T05:48:37.099Z,5.73
2022-11-15T05:49:58.858Z,5.72
2022-11-15T05:51:23.791Z,5.71
2022-11-15T05:52:47.042Z,5.71
2022-11-15T05:54:07.936Z,5.71
2022-11-15T05:55:29.329Z,5.71
2022-11-15T05:56:50.369Z,5.69
2022-11-15T05:58:11.209Z,5.71
2022-11-15T05:59:33.538Z,5.69
2022-11-15T06:00:55.415Z,5.70
2022-11-15T06:02:16.197Z,5.68
2022-11-15T06:03:37.080Z,5.70
2022-11-15T06:04:57.680Z,5.68
2022-11-15T06:06:18.307Z,5.67
2022-11-15T06:07:39.572Z,5.69
2022-11-15T06:09:00.250Z,5.68
2022-11-15T06:10:21.090Z,5.69
2022-11-15T06:11:41.546Z,5.68
2022-11-15T06:13:04.726Z,5.69
2022-11-15T06:14:25.724Z,5.68
2022-11-15T06:15:46.471Z,5.66
2022-11-15T06:17:11.293Z,5.67
2022-11-15T06:18:36.056Z,5.69
2022-11-15T06:19:56.947Z,5.70
2022-11-15T06:21:17.390Z,5.69
2022-11-15T06:22:38.475Z,5.68
2022-11-15T06:23:58.927Z,5.70
2022-11-15T06:25:19.855Z,5.70
2022-11-15T06:26:40.492Z,5.69
2022-11-15T06:28:03.670Z,5.69
2022-11-15T06:29:24.551Z,5.70
2022-11-15T06:30:47.972Z,5.70
2022-11-15T06:32:12.849Z,5.71
2022-11-15T06:33:34.151Z,5.73
2022-11-15T06:34:55.444Z,5.72
2022-11-15T06:36:18.225Z,5.72
2022-11-15T06:37:39.262Z,5.71
2022-11-15T06:39:00.273Z,5.72
2022-11-15T06:40:20.799Z,5.72
2022-11-15T06:41:41.234Z,5.73
2022-11-15T06:43:03.475Z,5.74
2022-11-15T06:44:24.076Z,5.75
2022-11-15T06:45:44.957Z,5.73
2022-11-15T06:47:05.726Z,5.74
2022-11-15T06:48:27.121Z,5.76
2022-11-15T06:49:47.828Z,5.78
2022-11-15T06:51:09.609Z,5.78
2022-11-15T06:52:33.611Z,5.78
2022-11-15T06:53:54.085Z,5.78
2022-11-15T06:55:15.041Z,5.78
2022-11-15T06:56:35.736Z,5.79
2022-11-15T06:57:56.516Z,5.80
2022-11-15T06:59:17.072Z,5.81
2022-11-15T07:00:37.659Z,5.81
2022-11-15T07:01:58.329Z,5.81
2022-11-15T07:03:22.259Z,5.81
2022-11-15T07:04:43.169Z,5.83
2022-11-15T07:06:07.552Z,5.84
2022-11-15T07:07:28.788Z,5.86
2022-11-15T07:08:49.913Z,5.88
2022-11-15T07:10:11.083Z,5.89
2022-11-15T07:11:31.650Z,5.89
2022-11-15T07:12:53.859Z,5.90
2022-11-15T07:14:14.578Z,5.93
2022-11-15T07:15:35.678Z,5.96
2022-11-15T07:16:56.368Z,5.97
2022-11-15T07:18:17.388Z,5.99
2022-11-15T07:19:38.086Z,6.03
2022-11-15T07:21:02.990Z,6.05
2022-11-15T07:22:23.601Z,6.09
2022-11-15T07:23:44.561Z,6.12
2022-11-15T07:25:05.406Z,6.14
2022-11-15T07:26:26.443Z,6.17
2022-11-15T07:27:55.588Z,6.21
2022-11-15T07:29:16.803Z,6.27
2022-11-15T07:30:40.004Z,6.30
2022-11-15T07:32:04.823Z,6.35
2022-11-15T07:33:25.260Z,6.40
2022-11-15T07:34:47.660Z,6.46
2022-11-15T07:36:09.036Z,6.52
2022-11-15T07:37:30.172Z,6.57
2022-11-15T07:38:51.303Z,6.65
2022-11-15T07:40:12.958Z,6.71
2022-11-15T07:41:33.461Z,6.77
2022-11-15T07:43:03.869Z,6.85
2022-11-15T07:44:24.570Z,6.90
2022-11-15T07:45:46.595Z,6.95
2022-11-15T07:47:07.132Z,7.02
2022-11-15T07:48:42.230Z,7.09
2022-11-15T07:50:03.981Z,7.16
2022-11-15T07:51:24.556Z,7.23
2022-11-15T07:52:46.731Z,7.30
2022-11-15T07:54:07.424Z,7.37
2022-11-15T07:55:31.127Z,7.44
2022-11-15T07:56:51.856Z,7.51
2022-11-15T07:58:13.582Z,7.58
2022-11-15T07:59:38.669Z,7.64
2022-11-15T08:00:59.679Z,7.70
2022-11-15T08:02:20.666Z,7.80
2022-11-15T08:03:42.515Z,7.87
2022-11-15T08:05:04.203Z,7.93
2022-11-15T08:06:24.999Z,8.02
2022-11-15T08:07:45.819Z,8.10
2022-11-15T08:09:06.642Z,8.15
2022-11-15T08:10:28.633Z,8.22
2022-11-15T08:11:49.179Z,8.30
2022-11-15T08:13:11.805Z,8.37
2022-11-15T08:14:32.876Z,8.46
2022-11-15T08:15:58.827Z,8.54
2022-11-15T08:17:19.513Z,8.59
2022-11-15T08:18:40.334Z,8.66
2022-11-15T08:20:01.067Z,8.72
2022-11-15T08:21:22.436Z,8.80
2022-11-15T08:22:43.448Z,8.86
2022-11-15T08:24:04.827Z,8.95
2022-11-15T08:25:27.673Z,9.03
2022-11-15T08:26:49.613Z,9.11
2022-11-15T08:28:11.502Z,9.18
2022-11-15T08:29:32.418Z,9.28
2022-11-15T08:30:53.281Z,9.38
2022-11-15T08:32:13.822Z,9.46
2022-11-15T08:33:36.570Z,9.54
2022-11-15T08:34:56.921Z,9.63
2022-11-15T08:36:18.941Z,9.73
2022-11-15T08:37:42.284Z,9.81
2022-11-15T08:39:03.330Z,9.91
2022-11-15T08:40:24.320Z,9.97
2022-11-15T08:41:45.785Z,10.07
2022-11-15T08:43:06.761Z,10.13
2022-11-15T08:44:27.182Z,10.21
2022-11-15T08:45:47.906Z,10.28
2022-11-15T08:47:09.746Z,10.34
2022-11-15T08:48:30.900Z,10.41
2022-11-15T08:49:51.949Z,10.46
2022-11-15T08:51:12.604Z,10.53
2022-11-15T08:52:33.501Z,10.58
2022-11-15T08:53:54.349Z,10.64
2022-11-15T08:55:17.558Z,10.69
2022-11-15T08:56:38.550Z,10.75
2022-11-15T08:57:59.497Z,10.79
2022-11-15T08:59:20.479Z,10.85
2022-11-15T09:00:41.066Z,10.89
2022-11-15T09:02:02.510Z,10.93
2022-11-15T09:03:23.552Z,10.98
2022-11-15T09:04:45.289Z,11.03
2022-11-15T09:06:06.112Z,11.08
2022-11-15T09:07:27.352Z,11.14
2022-11-15T09:08:49.334Z,11.19
2022-11-15T09:10:10.974Z,11.24
2022-11-15T09:11:32.001Z,11.29
2022-11-15T09:12:53.048Z,11.35
2022-11-15T09:14:14.939Z,11.42
2022-11-15T09:15:35.900Z,11.45
2022-11-15T09:16:56.627Z,11.50
2022-11-15T09:18:17.287Z,11.53
2022-11-15T09:19:38.611Z,11.59
2022-11-15T09:21:00.834Z,11.63
2022-11-15T09:22:22.266Z,11.66
2022-11-15T09:23:43.322Z,11.70
2022-11-15T09:25:08.524Z,11.75
2022-11-15T09:26:30.718Z,11.81
2022-11-15T09:27:51.664Z,11.83
2022-11-15T09:29:13.480Z,11.89
2022-11-15T09:30:35.013Z,11.93
2022-11-15T09:31:55.816Z,11.99
2022-11-15T09:33:16.943Z,12.05
2022-11-15T09:34:37.683Z,12.11
2022-11-15T09:36:08.957Z,12.18
2022-11-15T09:37:29.937Z,12.23
2022-11-15T09:38:50.447Z,12.29
2022-11-15T09:40:17.392Z,12.34
2022-11-15T09:42:03.288Z,12.39
2022-11-15T09:43:38.274Z,12.41
2022-11-15T09:45:18.900Z,12.48
2022-11-15T09:46:54.694Z,12.51
2022-11-15T09:48:09.265Z,12.54
2022-11-15T09:49:37.303Z,12.55
2022-11-15T09:50:51.533Z,12.58
2022-11-15T09:51:55.328Z,12.62
2022-11-15T09:52:57.540Z,12.65
2022-11-15T09:54:45.632Z,12.68
2022-11-15T09:55:42.066Z,12.74
2022-11-15T09:56:48.148Z,12.78
2022-11-15T09:58:05.212Z,12.82
2022-11-15T09:59:13.426Z,12.87
2022-11-15T10:00:45.500Z,12.90
2022-11-15T10:01:49.790Z,12.96
2022-11-15T10:03:04.615Z,12.99
2022-11-15T10:04:10.805Z,13.03
2022-11-15T10:05:20.149Z,13.07
2022-11-15T10:06:28.588Z,13.11
2022-11-15T10:07:58.499Z,13.15
2022-11-15T10:09:15.018Z,13.19
2022-11-15T10:10:28.573Z,13.26
2022-11-15T10:11:38.714Z,13.29
2022-11-15T10:12:46.776Z,13.33
2022-11-15T10:13:51.452Z,13.36
2022-11-15T10:15:02.793Z,13.39
2022-11-15T10:16:20.294Z,13.42
2022-11-15T10:17:28.787Z,13.45
2022-11-15T10:18:42.197Z,13.45
2022-11-15T10:20:06.009Z,13.46
2022-11-15T10:21:20.673Z,13.49
2022-11-15T10:22:30.491Z,13.50
2022-11-15T10:23:33.038Z,13.50
2022-11-15T10:24:40.441Z,13.51
2022-11-15T10:25:42.766Z,13.50
2022-11-15T10:26:49.464Z,13.54
2022-11-15T10:27:56.002Z,13.53
2022-11-15T10:28:58.271Z,13.54
2022-11-15T10:30:00.501Z,13.53
2022-11-15T10:31:06.551Z,13.53
2022-11-15T10:32:08.949Z,13.52
2022-11-15T10:33:36.636Z,13.50
2022-11-15T10:34:38.977Z,13.51
2022-11-15T10:35:41.319Z,13.51
2022-11-15T10:36:50.230Z,13.48
2022-11-15T10:37:53.008Z,13.48
2022-11-15T10:39:05.540Z,13.47
2022-11-15T10:40:17.761Z,13.46
2022-11-15T10:41:21.709Z,13.46
2022-11-15T10:42:29.091Z,13.45
2022-11-15T10:43:31.486Z,13.45
2022-11-15T10:44:44.151Z,13.46
2022-11-15T10:45:48.357Z,13.45
2022-11-15T10:46:56.418Z,13.46
2022-11-15T10:48:14.029Z,13.47
2022-11-15T10:49:18.249Z,13.46
2022-11-15T10:50:32.917Z,13.46
2022-11-15T10:51:43.093Z,13.45
2022-11-15T10:52:48.874Z,13.45
2022-11-15T10:53:53.559Z,13.44
2022-11-15T10:55:10.601Z,13.44
2022-11-15T10:56:16.798Z,13.43
2022-11-15T10:57:22.901Z,13.43
2022-11-15T10:58:42.767Z,13.43
2022-11-15T11:00:05.367Z,13.44
2022-11-15T11:01:14.290Z,13.45
2022-11-15T11:02:36.821Z,13.43
2022-11-15T11:03:40.471Z,13.44
2022-11-15T11:04:52.766Z,13.44
2022-11-15T11:06:08.726Z,13.44
2022-11-15T11:07:23.394Z,13.43
2022-11-15T11:08:25.820Z,13.42
2022-11-15T11:09:40.167Z,13.41
2022-11-15T11:11:03.010Z,13.41
2022-11-15T11:12:11.104Z,13.40
2022-11-15T11:13:15.511Z,13.42
2022-11-15T11:14:39.053Z,13.41
2022-11-15T11:15:46.289Z,13.40
2022-11-15T11:17:03.787Z,13.40
2022-11-15T11:18:18.862Z,13.40
2022-11-15T11:19:36.058Z,13.39
2022-11-15T11:20:44.965Z,13.40
2022-11-15T11:22:19.163Z,13.40
2022-11-15T11:23:50.615Z,13.37
2022-11-15T11:24:58.153Z,13.37
2022-11-15T11:26:30.739Z,13.38
2022-11-15T11:27:52.464Z,13.36
2022-11-15T11:29:09.855Z,13.34
2022-11-15T11:30:22.942Z,13.34
2022-11-15T11:31:48.675Z,13.32
2022-11-15T11:33:02.829Z,13.32
2022-11-15T11:34:23.749Z,13.30
2022-11-15T11:35:35.334Z,13.30
2022-11-15T11:36:54.417Z,13.30
2022-11-15T11:38:21.532Z,13.28
2022-11-15T11:39:57.706Z,13.25
2022-11-15T11:41:37.883Z,13.25
2022-11-15T11:43:00.567Z,13.21
2022-11-15T11:44:47.962Z,13.18
2022-11-15T11:46:05.279Z,13.15
2022-11-15T11:47:10.808Z,13.14
2022-11-15T11:48:24.190Z,13.11
2022-11-15T11:49:34.231Z,13.10
2022-11-15T11:50:39.536Z,13.08
2022-11-15T11:52:02.608Z,13.07
2022-11-15T11:53:13.818Z,13.06
2022-11-15T11:54:51.269Z,13.04
2022-11-15T11:56:02.786Z,13.01
2022-11-15T11:57:14.164Z,13.00
2022-11-15T11:58:27.323Z,13.00
2022-11-15T11:59:45.995Z,12.97
2022-11-15T12:00:53.359Z,12.95
2022-11-15T12:01:55.887Z,12.96
2022-11-15T12:03:18.613Z,12.93
2022-11-15T12:04:47.044Z,12.91
2022-11-15T12:06:06.190Z,12.89
2022-11-15T12:07:14.560Z,12.88
2022-11-15T12:08:27.921Z,12.85
2022-11-15T12:09:30.845Z,12.83
2022-11-15T12:10:35.669Z,12.80
2022-11-15T12:12:05.766Z,12.80
2022-11-15T12:13:25.551Z,12.78
2022-11-15T12:14:33.357Z,12.77
2022-11-15T12:15:49.359Z,12.75
2022-11-15T12:16:52.168Z,12.74
2022-11-15T12:17:57.983Z,12.72
2022-11-15T12:19:05.778Z,12.72
2022-11-15T12:20:16.397Z,12.69
2022-11-15T12:21:40.609Z,12.68
2022-11-15T12:22:48.445Z,12.64
2022-11-15T12:23:56.831Z,12.64
2022-11-15T12:25:29.302Z,12.61
2022-11-15T12:27:05.592Z,12.58
2022-11-15T12:28:18.891Z,12.57
2022-11-15T12:29:32.136Z,12.55
2022-11-15T12:30:52.782Z,12.54
2022-11-15T12:31:58.054Z,12.52
2022-11-15T12:33:02.432Z,12.51
2022-11-15T12:34:29.546Z,12.49
2022-11-15T12:35:35.995Z,12.48
2022-11-15T12:36:43.868Z,12.46
2022-11-15T12:37:51.660Z,12.44
2022-11-15T12:39:13.594Z,12.44
2022-11-15T12:40:27.353Z,12.42
2022-11-15T12:41:32.777Z,12.40
2022-11-15T12:42:59.784Z,12.38
2022-11-15T12:44:03.649Z,12.36
2022-11-15T12:45:29.976Z,12.34
2022-11-15T12:46:34.469Z,12.33
2022-11-15T12:47:36.725Z,12.31
2022-11-15T12:48:38.954Z,12.30
2022-11-15T12:49:41.192Z,12.29
2022-11-15T12:50:55.450Z,12.26
2022-11-15T12:51:57.712Z,12.25
2022-11-15T12:53:28.776Z,12.22
2022-11-15T12:54:52.802Z,12.19
2022-11-15T12:56:07.346Z,12.20
2022-11-15T12:57:10.128Z,12.18
2022-11-15T12:58:30.469Z,12.17
2022-11-15T13:00:05.376Z,12.16
2022-11-15T13:01:09.053Z,12.14
2022-11-15T13:02:20.048Z,12.13
2022-11-15T13:03:24.946Z,12.12
2022-11-15T13:04:29.125Z,12.11
2022-11-15T13:05:31.805Z,12.11
2022-11-15T13:06:55.223Z,12.09
2022-11-15T13:07:59.674Z,12.09
2022-11-15T13:09:04.720Z,12.08
2022-11-15T13:10:12.798Z,12.06
2022-11-15T13:11:47.728Z,12.06
2022-11-15T13:12:52.525Z,12.03
2022-11-15T13:13:54.792Z,12.02
2022-11-15T13:15:19.931Z,12.01
2022-11-15T13:16:22.244Z,12.02
2022-11-15T13:17:30.848Z,11.99
2022-11-15T13:18:34.150Z,11.99
2022-11-15T13:19:38.065Z,11.97
2022-11-15T13:20:40.376Z,11.96
2022-11-15T13:22:08.922Z,11.95
2022-11-15T13:23:19.280Z,11.94
2022-11-15T13:24:21.517Z,11.96
2022-11-15T13:26:09.589Z,11.92
2022-11-15T13:27:19.615Z,11.90
2022-11-15T13:28:33.692Z,11.88
2022-11-15T13:29:36.709Z,11.85
2022-11-15T13:30:39.245Z,11.84
2022-11-15T13:31:44.281Z,11.83
2022-11-15T13:32:46.628Z,11.82
2022-11-15T13:33:49.262Z,11.81
2022-11-15T13:34:54.250Z,11.80
2022-11-15T13:35:59.930Z,11.79
2022-11-15T13:37:03.617Z,11.77
2022-11-15T13:38:06.260Z,11.77
2022-11-15T13:39:28.657Z,11.76
2022-11-15T13:40:36.917Z,11.73
2022-11-15T13:41:49.535Z,11.73
2022-11-15T13:42:52.271Z,11.72
2022-11-15T13:43:55.905Z,11.70
2022-11-15T13:45:01.162Z,11.69
2022-11-15T13:46:21.565Z,11.68
2022-11-15T13:47:28.217Z,11.66
2022-11-15T13:48:31.189Z,11.64
2022-11-15T13:49:35.142Z,11.63
2022-11-15T13:50:40.248Z,11.60
2022-11-15T13:51:52.635Z,11.60
2022-11-15T13:53:00.310Z,11.57
2022-11-15T13:54:14.498Z,11.55
2022-11-15T13:55:23.452Z,11.52
2022-11-15T13:56:28.659Z,11.50
2022-11-15T13:57:46.161Z,11.48
2022-11-15T13:58:49.423Z,11.47
2022-11-15T13:59:58.652Z,11.45
2022-11-15T14:01:06.776Z,11.43
2022-11-15T14:02:21.302Z,11.43
2022-11-15T14:03:29.037Z,11.39
2022-11-15T14:04:34.908Z,11.38
2022-11-15T14:05:39.187Z,11.37
2022-11-15T14:06:51.844Z,11.36
2022-11-15T14:08:23.834Z,11.31
2022-11-15T14:09:39.873Z,11.29
2022-11-15T14:10:42.412Z,11.26
2022-11-15T14:11:53.046Z,11.23
2022-11-15T14:12:55.339Z,11.21
2022-11-15T14:14:09.576Z,11.19
2022-11-15T14:15:32.773Z,11.17
2022-11-15T14:16:40.926Z,11.14
2022-11-15T14:17:49.793Z,11.11
2022-11-15T14:18:56.651Z,11.10
2022-11-15T14:19:59.230Z,11.07
2022-11-15T14:21:09.053Z,11.02
2022-11-15T14:22:21.389Z,10.99
2022-11-15T14:23:28.684Z,10.96
2022-11-15T14:24:35.213Z,10.93
2022-11-15T14:25:37.544Z,10.91
2022-11-15T14:26:39.861Z,10.87
2022-11-15T14:27:44.596Z,10.87
2022-11-15T14:28:47.111Z,10.84
2022-11-15T14:29:50.047Z,10.81
2022-11-15T14:30:55.187Z,10.79
2022-11-15T14:32:15.588Z,10.77
2022-11-15T14:33:44.380Z,10.74
2022-11-15T14:34:48.408Z,10.71
2022-11-15T14:35:52.052Z,10.68
2022-11-15T14:36:54.277Z,10.65
2022-11-15T14:37:56.691Z,10.63
2022-11-15T14:38:59.194Z,10.59
2022-11-15T14:40:03.610Z,10.57
2022-11-15T14:41:06.855Z,10.53
2022-11-15T14:42:10.795Z,10.51
2022-11-15T14:43:14.484Z,10.49
2022-11-15T14:44:19.613Z,10.47
2022-11-15T14:45:23.275Z,10.44
2022-11-15T14:46:25.503Z,10.41
2022-11-15T14:47:27.701Z,10.39
2022-11-15T14:48:30.434Z,10.35
2022-11-15T14:49:33.210Z,10.31
2022-11-15T14:50:36.372Z,10.30
2022-11-15T14:51:38.638Z,10.28
2022-11-15T14:52:41.397Z,10.26
2022-11-15T14:53:45.023Z,10.23
2022-11-15T14:54:47.270Z,10.20
2022-11-15T14:55:50.223Z,10.18
2022-11-15T14:56:52.549Z,10.15
2022-11-15T14:57:55.239Z,10.11
2022-11-15T14:58:57.589Z,10.08
2022-11-15T14:59:59.755Z,10.04
2022-11-15T15:01:24.070Z,9.99
2022-11-15T15:02:28.039Z,9.94
2022-11-15T15:03:30.399Z,9.90
2022-11-15T15:04:32.622Z,9.88
2022-11-15T15:05:38.440Z,9.87
2022-11-15T15:06:40.931Z,9.84
2022-11-15T15:07:43.690Z,9.81
2022-11-15T15:08:47.182Z,9.77
2022-11-15T15:09:49.538Z,9.75
2022-11-15T15:10:51.808Z,9.71
2022-11-15T15:11:55.796Z,9.67
2022-11-15T15:12:58.130Z,9.64
2022-11-15T15:14:02.393Z,9.62
2022-11-15T15:15:07.765Z,9.58
2022-11-15T15:16:10.123Z,9.53
2022-11-15T15:17:12.544Z,9.49
2022-11-15T15:18:14.952Z,9.45
2022-11-15T15:19:19.468Z,9.43
2022-11-15T15:20:21.800Z,9.40
2022-11-15T15:21:29.886Z,9.36
2022-11-15T15:22:36.227Z,9.31
2022-11-15T15:23:38.448Z,9.28
2022-11-15T15:24:40.735Z,9.23
2022-11-15T15:25:43.247Z,9.20
2022-11-15T15:26:45.555Z,9.16
2022-11-15T15:27:47.883Z,9.13
2022-11-15T15:28:52.292Z,9.07
2022-11-15T15:29:54.551Z,9.04
2022-11-15T15:30:56.844Z,9.00
2022-11-15T15:32:01.302Z,8.98
2022-11-15T15:33:03.566Z,8.95
2022-11-15T15:34:05.870Z,8.93
2022-11-15T15:35:14.006Z,8.88
2022-11-15T15:36:19.461Z,8.86
2022-11-15T15:37:27.173Z,8.82
2022-11-15T15:38:32.258Z,8.79
2022-11-15T15:39:34.567Z,8.76
2022-11-15T15:40:36.956Z,8.71
2022-11-15T15:41:39.294Z,8.68
2022-11-15T15:42:41.642Z,8.66
2022-11-15T15:43:45.371Z,8.61
2022-11-15T15:44:48.998Z,8.58
2022-11-15T15:45:51.261Z,8.55
2022-11-15T15:46:53.693Z,8.52
2022-11-15T15:47:56.357Z,8.49
2022-11-15T15:48:58.611Z,8.45
2022-11-15T15:50:00.946Z,8.41
2022-11-15T15:51:07.385Z,8.40
2022-11-15T15:52:15.495Z,8.34
2022-11-15T15:53:18.452Z,8.33
2022-11-15T15:54:20.747Z,8.30
2022-11-15T15:55:23.925Z,8.26
2022-11-15T15:56:26.284Z,8.25
2022-11-15T15:57:28.597Z,8.24
2022-11-15T15:58:31.328Z,8.21
2022-11-15T15:59:33.940Z,8.20
2022-11-15T16:00:36.894Z,8.17
2022-11-15T16:01:39.094Z,8.16
2022-11-15T16:02:42.032Z,8.14
2022-11-15T16:03:44.285Z,8.11
2022-11-15T16:04:46.529Z,8.08
2022-11-15T16:05:51.501Z,8.07
2022-11-15T16:07:03.915Z,8.04
2022-11-15T16:08:06.280Z,8.02
2022-11-15T16:09:15.845Z,8.00
2022-11-15T16:10:21.413Z,7.96
2022-11-15T16:11:23.767Z,7.94
2022-11-15T16:12:26.210Z,7.92
2022-11-15T16:13:28.440Z,7.90
2022-11-15T16:14:32.917Z,7.87
2022-11-15T16:15:36.271Z,7.84
2022-11-15T16:16:39.226Z,7.83
2022-11-15T16:17:56.342Z,7.80
2022-11-15T16:18:58.517Z,7.79
2022-11-15T16:20:01.046Z,7.75
2022-11-15T16:21:03.369Z,7.73
2022-11-15T16:22:05.644Z,7.71
2022-11-15T16:23:12.126Z,7.67
2022-11-15T16:24:14.382Z,7.64
2022-11-15T16:25:16.665Z,7.62
2022-11-15T16:26:27.499Z,7.60
2022-11-15T16:27:29.794Z,7.58
2022-11-15T16:28:34.096Z,7.53
2022-11-15T16:29:36.582Z,7.50
2022-11-15T16:30:39.300Z,7.49
2022-11-15T16:31:41.547Z,7.46
2022-11-15T16:32:43.899Z,7.46
2022-11-15T16:33:49.127Z,7.41
2022-11-15T16:34:51.405Z,7.38
2022-11-15T16:35:53.843Z,7.37
2022-11-15T16:36:56.359Z,7.35
2022-11-15T16:37:58.578Z,7.32
2022-11-15T16:39:05.037Z,7.32
2022-11-15T16:40:24.869Z,7.29
2022-11-15T16:41:29.186Z,7.26
2022-11-15T16:42:31.507Z,7.23
2022-11-15T16:43:33.808Z,7.20
2022-11-15T16:44:36.077Z,7.18
2022-11-15T16:45:40.778Z,7.15
2022-11-15T16:46:43.628Z,7.14
2022-11-15T16:47:45.873Z,7.12
2022-11-15T16:48:48.935Z,7.12
2022-11-15T16:49:51.121Z,7.07
2022-11-15T16:50:58.954Z,7.07
2022-11-15T16:52:01.291Z,7.06
2022-11-15T16:53:03.559Z,7.03